createdAt,value
2018-12-15T00:04:20.579Z,99340.08
2018-12-15T00:09:41.571Z,99337.81
2018-12-15T00:14:43.887Z,99333.91
2018-12-15T00:19:46.145Z,99337.81
2018-12-15T00:24:48.609Z,99328.70
2018-12-15T00:29:50.913Z,99333.82
2018-12-15T00:34:53.163Z,99332.52
2018-12-15T00:39:55.529Z,99338.90
2018-12-15T00:44:57.815Z,99333.57
2018-12-15T00:50:00.045Z,99346.33
2018-12-15T00:55:02.526Z,99350.34
2018-12-15T01:00:05.087Z,99356.27
2018-12-15T01:05:07.418Z,99362.39
2018-12-15T01:10:09.645Z,99355.18
2018-12-15T01:15:12.004Z,99358.16
2018-12-15T01:20:14.281Z,99365.95
2018-12-15T01:25:16.556Z,99370.44
2018-12-15T01:30:18.870Z,99366.08
2018-12-15T01:35:21.145Z,99369.86
2018-12-15T01:40:23.383Z,99369.48
2018-12-15T01:45:25.600Z,99363.36
2018-12-15T01:50:27.810Z,99367.00
2018-12-15T01:55:30.205Z,99378.45
2018-12-15T02:00:32.483Z,99381.06
2018-12-15T02:05:34.675Z,99380.97
2018-12-15T02:10:37.073Z,99377.99
2018-12-15T02:15:39.375Z,99381.44
2018-12-15T02:20:41.847Z,99377.06
2018-12-15T02:25:44.225Z,99376.57
2018-12-15T02:30:47.697Z,99373.26
2018-12-15T02:35:50.371Z,99370.66
2018-12-15T02:40:52.593Z,99371.38
2018-12-15T02:45:54.913Z,99378.83
2018-12-15T02:50:57.169Z,99375.27
2018-12-15T02:55:59.426Z,99375.64
2018-12-15T03:01:03.151Z,99369.98
2018-12-15T03:06:06.595Z,99382.39
2018-12-15T03:11:08.822Z,99379.42
2018-12-15T03:16:11.080Z,99376.11
2018-12-15T03:21:13.357Z,99376.11
2018-12-15T03:26:15.567Z,99377.88
2018-12-15T03:31:17.889Z,99378.45
2018-12-15T03:36:20.167Z,99376.23
2018-12-15T03:41:22.517Z,99386.26
2018-12-15T03:46:25.797Z,99383.31
2018-12-15T03:51:28.149Z,99380.34
2018-12-15T03:56:31.125Z,99381.64
2018-12-15T04:01:33.634Z,99386.50
2018-12-15T04:06:35.951Z,99387.92
2018-12-15T04:11:38.202Z,99385.78
2018-12-15T04:16:40.661Z,99386.72
2018-12-15T04:21:42.887Z,99399.72
2018-12-15T04:26:45.124Z,99398.41
2018-12-15T04:31:49.432Z,99398.91
2018-12-15T04:36:51.632Z,99398.19
2018-12-15T04:41:53.843Z,99399.95
2018-12-15T04:46:56.538Z,99405.73
2018-12-15T04:51:58.721Z,99407.97
2018-12-15T04:57:00.913Z,99406.78
2018-12-15T05:02:03.419Z,99412.45
2018-12-15T05:07:05.744Z,99407.83
2018-12-15T05:12:08.055Z,99420.83
2018-12-15T05:17:10.475Z,99415.75
2018-12-15T05:22:13.238Z,99421.33
2018-12-15T05:27:15.801Z,99423.92
2018-12-15T05:32:18.077Z,99429.70
2018-12-15T05:37:20.351Z,99435.95
2018-12-15T05:42:22.594Z,99435.00
2018-12-15T05:47:24.840Z,99443.95
2018-12-15T05:52:27.213Z,99439.25
2018-12-15T05:57:29.471Z,99445.84
2018-12-15T06:02:32.159Z,99448.21
2018-12-15T06:07:34.562Z,99453.88
2018-12-15T06:12:36.928Z,99453.16
2018-12-15T06:17:39.519Z,99455.38
2018-12-15T06:22:41.724Z,99465.43
2018-12-15T06:27:44.079Z,99465.55
2018-12-15T06:32:46.420Z,99463.67
2018-12-15T06:37:48.779Z,99472.85
2018-12-15T06:42:53.249Z,99477.24
2018-12-15T06:47:55.451Z,99477.24
2018-12-15T06:52:58.504Z,99470.37
2018-12-15T06:58:00.825Z,99462.69
2018-12-15T07:03:03.062Z,99459.14
2018-12-15T07:08:05.343Z,99459.72
2018-12-15T07:13:07.685Z,99463.85
2018-12-15T07:18:11.232Z,99465.27
2018-12-15T07:23:13.549Z,99469.89
2018-12-15T07:28:15.917Z,99478.26
2018-12-15T07:33:18.158Z,99472.56
2018-12-15T07:38:20.430Z,99467.86
2018-12-15T07:43:22.703Z,99476.84
2018-12-15T07:48:24.978Z,99472.56
2018-12-15T07:53:27.467Z,99477.69
2018-12-15T07:58:29.776Z,99481.92
2018-12-15T08:03:32.023Z,99479.33
2018-12-15T08:08:34.347Z,99468.20
2018-12-15T08:13:36.848Z,99468.78
2018-12-15T08:18:39.118Z,99473.41
2018-12-15T08:23:41.791Z,99481.66
2018-12-15T08:28:44.191Z,99482.63
2018-12-15T08:33:46.785Z,99486.52
2018-12-15T08:38:49.164Z,99486.86
2018-12-15T08:43:52.014Z,99484.27
2018-12-15T08:48:54.249Z,99485.10
2018-12-15T08:53:56.510Z,99494.92
2018-12-15T08:58:58.748Z,99496.83
2018-12-15T09:04:00.994Z,99502.28
2018-12-15T09:09:05.409Z,99501.45
2018-12-15T09:14:07.842Z,99499.69
2018-12-15T09:19:11.386Z,99499.34
2018-12-15T09:24:14.054Z,99499.22
2018-12-15T09:29:17.168Z,99500.98
2018-12-15T09:34:19.846Z,99497.55
2018-12-15T09:39:22.118Z,99489.66
2018-12-15T09:44:24.358Z,99486.95
2018-12-15T09:49:26.729Z,99484.92
2018-12-15T09:54:29.125Z,99487.29
2018-12-15T09:59:33.109Z,99484.11
2018-12-15T10:04:35.468Z,99482.00
2018-12-15T10:09:38.112Z,99476.55
2018-12-15T10:14:40.484Z,99466.98
2018-12-15T10:19:43.191Z,99466.03
2018-12-15T10:24:45.418Z,99468.19
2018-12-15T10:29:53.553Z,99459.55
2018-12-15T10:34:55.961Z,99458.25
2018-12-15T10:39:58.377Z,99452.61
2018-12-15T10:45:00.647Z,99450.51
2018-12-15T10:50:03.602Z,99449.44
2018-12-15T10:55:09.308Z,99434.92
2018-12-15T11:00:19.052Z,99431.04
2018-12-15T11:05:23.723Z,99425.27
2018-12-15T11:10:26.045Z,99419.03
2018-12-15T11:15:28.371Z,99410.91
2018-12-15T11:20:30.621Z,99408.34
2018-12-15T11:25:32.888Z,99407.88
2018-12-15T11:30:35.279Z,99412.03
2018-12-15T11:35:37.502Z,99414.27
2018-12-15T11:40:40.361Z,99408.94
2018-12-15T11:45:42.729Z,99408.69
2018-12-15T11:50:45.003Z,99401.34
2018-12-15T11:55:47.229Z,99395.55
2018-12-15T12:00:49.497Z,99396.97
2018-12-15T12:05:51.798Z,99390.13
2018-12-15T12:10:55.194Z,99382.91
2018-12-15T12:15:57.717Z,99393.19
2018-12-15T12:21:00.793Z,99384.43
2018-12-15T12:26:03.093Z,99386.55
2018-12-15T12:31:05.389Z,99389.49
2018-12-15T12:36:07.638Z,99389.49
2018-12-15T12:41:11.005Z,99383.58
2018-12-15T12:46:15.065Z,99377.41
2018-12-15T12:51:17.741Z,99379.05
2018-12-15T12:56:22.842Z,99375.27
2018-12-15T13:01:25.259Z,99373.84
2018-12-15T13:06:27.508Z,99378.11
2018-12-15T13:11:32.806Z,99371.36
2018-12-15T13:16:35.134Z,99378.23
2018-12-15T13:21:37.527Z,99381.64
2018-12-15T13:26:39.864Z,99372.32
2018-12-15T13:31:42.538Z,99378.33
2018-12-15T13:36:45.022Z,99367.83
2018-12-15T13:41:47.814Z,99364.65
2018-12-15T13:46:50.676Z,99364.99
2018-12-15T13:51:53.275Z,99370.19
2018-12-15T13:56:55.587Z,99366.41
2018-12-15T14:01:57.983Z,99365.33
2018-12-15T14:07:00.289Z,99369.23
2018-12-15T14:12:02.548Z,99365.19
2018-12-15T14:17:04.874Z,99372.78
2018-12-15T14:22:07.229Z,99375.24
2018-12-15T14:27:09.502Z,99367.19
2018-12-15T14:32:11.738Z,99367.41
2018-12-15T14:37:13.961Z,99361.98
2018-12-15T14:42:16.261Z,99358.55
2018-12-15T14:47:18.591Z,99350.49
2018-12-15T14:52:20.819Z,99349.06
2018-12-15T14:57:24.966Z,99346.92
2018-12-15T15:02:27.203Z,99344.58
2018-12-15T15:07:29.489Z,99335.73
2018-12-15T15:12:31.709Z,99329.70
2018-12-15T15:17:34.038Z,99327.80
2018-12-15T15:22:36.437Z,99321.17
2018-12-15T15:27:38.697Z,99319.88
2018-12-15T15:32:40.972Z,99327.80
2018-12-15T15:37:43.223Z,99320.22
2018-12-15T15:42:45.513Z,99324.70
2018-12-15T15:47:47.834Z,99321.17
2018-12-15T15:52:50.119Z,99319.50
2018-12-15T15:57:52.463Z,99317.39
2018-12-15T16:02:55.764Z,99316.31
2018-12-15T16:07:58.014Z,99317.86
2018-12-15T16:13:00.267Z,99312.28
2018-12-15T16:18:02.714Z,99304.41
2018-12-15T16:23:05.094Z,99296.10
2018-12-15T16:28:07.564Z,99291.73
2018-12-15T16:33:09.821Z,99283.23
2018-12-15T16:38:12.149Z,99288.87
2018-12-15T16:43:14.392Z,99280.21
2018-12-15T16:48:16.846Z,99277.41
2018-12-15T16:53:19.088Z,99277.78
2018-12-15T16:58:21.359Z,99268.78
2018-12-15T17:03:30.388Z,99268.33
2018-12-15T17:08:28.958Z,99266.31
2018-12-15T17:13:31.212Z,99260.60
2018-12-15T17:18:33.567Z,99263.49
2018-12-15T17:23:37.147Z,99251.25
2018-12-15T17:28:39.464Z,99248.68
2018-12-15T17:33:41.727Z,99237.06
2018-12-15T17:38:44.105Z,99230.89
2018-12-15T17:43:46.354Z,99232.62
2018-12-15T17:48:48.749Z,99221.84
2018-12-15T17:53:51.102Z,99220.47
2018-12-15T17:58:53.389Z,99226.80
2018-12-15T18:03:55.719Z,99224.17
2018-12-15T18:08:57.992Z,99227.06
2018-12-15T18:14:00.238Z,99220.33
2018-12-15T18:19:02.523Z,99211.74
2018-12-15T18:24:04.800Z,99201.58
2018-12-15T18:29:07.749Z,99197.19
2018-12-15T18:34:09.998Z,99189.42
2018-12-15T18:39:12.561Z,99190.18
2018-12-15T18:44:14.813Z,99191.36
2018-12-15T18:49:17.070Z,99175.81
2018-12-15T18:54:19.389Z,99169.45
2018-12-15T18:59:22.037Z,99166.46
2018-12-15T19:04:24.281Z,99157.68
2018-12-15T19:09:26.586Z,99152.91
2018-12-15T19:14:28.909Z,99144.91
2018-12-15T19:19:31.162Z,99136.94
2018-12-15T19:24:33.421Z,99135.78
2018-12-15T19:29:35.734Z,99127.51
2018-12-15T19:34:37.988Z,99122.84
2018-12-15T19:39:40.253Z,99122.95
2018-12-15T19:44:42.556Z,99113.52
2018-12-15T19:49:44.818Z,99107.67
2018-12-15T19:54:47.081Z,99107.23
2018-12-15T19:59:49.461Z,99101.80
2018-12-15T20:04:51.855Z,99090.26
2018-12-15T20:09:54.071Z,99084.86
2018-12-15T20:14:56.365Z,99075.91
2018-12-15T20:19:58.646Z,99073.53
2018-12-15T20:25:00.944Z,99060.81
2018-12-15T20:30:04.089Z,99060.23
2018-12-15T20:35:06.894Z,99054.00
2018-12-15T20:40:09.383Z,99052.36
2018-12-15T20:45:11.788Z,99043.63
2018-12-15T20:50:14.222Z,99034.91
2018-12-15T20:55:16.537Z,99015.91
2018-12-15T21:00:18.898Z,99012.84
2018-12-15T21:05:21.438Z,98999.29
2018-12-15T21:10:23.677Z,98988.78
2018-12-15T21:15:28.802Z,98974.14
2018-12-15T21:20:31.047Z,98972.37
2018-12-15T21:25:34.679Z,98967.06
2018-12-15T21:30:36.946Z,98953.50
2018-12-15T21:35:39.206Z,98950.81
2018-12-15T21:40:41.535Z,98947.63
2018-12-15T21:45:43.817Z,98940.55
2018-12-15T21:50:46.038Z,98938.66
2018-12-15T21:55:48.332Z,98934.27
2018-12-15T22:00:51.677Z,98921.78
2018-12-15T22:05:54.036Z,98925.89
2018-12-15T22:10:56.431Z,98920.48
2018-12-15T22:15:58.714Z,98908.80
2018-12-15T22:21:01.140Z,98902.42
2018-12-15T22:26:03.630Z,98908.91
2018-12-15T22:31:05.904Z,98904.89
2018-12-15T22:36:08.351Z,98900.06
2018-12-15T22:41:10.670Z,98888.13
2018-12-15T22:46:13.057Z,98889.79
2018-12-15T22:51:15.364Z,98869.02
2018-12-15T22:56:24.545Z,98875.25
2018-12-15T23:01:28.885Z,98864.87
2018-12-15T23:06:39.927Z,98848.70
2018-12-15T23:11:42.204Z,98837.25
2018-12-15T23:16:44.615Z,98826.39
2018-12-15T23:21:46.846Z,98815.52
2018-12-15T23:26:49.126Z,98804.19
2018-12-15T23:31:51.432Z,98792.04
2018-12-15T23:36:53.702Z,98770.56
2018-12-15T23:41:56.076Z,98757.78
2018-12-15T23:46:58.318Z,98741.17
2018-12-15T23:52:00.551Z,98743.77
2018-12-15T23:57:02.971Z,98729.95
